Time;durP1;ratioP1;P1;durP2;ratioP2;P2;SDS_P1;SDS_P2;PMS_P1;PMS_P2;Temp;Humidity;BMP_temperature;BMP_pressure;BME280_temperature;BME280_humidity;BME280_pressure;Samples;Min_cycle;Max_cycle;Signal;HPM_P1;HPM_P2
2022/08/31 00:04:11;;;;;;;;;8.00;6.50;;;;;26.49;100.00;101307.41;5041104;28;51183;-61
2022/08/31 00:06:56;;;;;;;;;8.25;6.50;;;;;26.49;100.00;101308.31;5041227;28;51108;-61
2022/08/31 00:09:40;;;;;;;;;10.50;7.25;;;;;26.46;100.00;101308.50;5041051;28;51386;-61
2022/08/31 00:12:25;;;;;;;;;8.50;6.75;;;;;26.48;100.00;101300.19;5040849;28;51256;-60
2022/08/31 00:15:11;;;;;;;;;12.50;5.50;;;;;26.49;100.00;101300.13;5041151;28;51269;-61
2022/08/31 00:17:57;;;;;;;;;7.25;5.50;;;;;26.50;100.00;101295.53;5041097;28;51152;-60
2022/08/31 00:20:42;;;;;;;;;11.00;7.75;;;;;26.51;100.00;101297.28;5041145;28;51051;-60
2022/08/31 00:23:27;;;;;;;;;11.50;7.00;;;;;26.53;100.00;101303.53;5039551;28;51171;-59
2022/08/31 00:26:11;;;;;;;;;14.50;7.50;;;;;26.49;100.00;101291.06;5040337;28;51289;-60
2022/08/31 00:28:56;;;;;;;;;6.50;6.50;;;;;26.51;100.00;101292.69;5040935;28;50983;-59
2022/08/31 00:31:41;;;;;;;;;7.50;4.75;;;;;26.48;100.00;101278.38;5040442;28;51157;-61
2022/08/31 00:34:26;;;;;;;;;3.50;3.50;;;;;26.47;100.00;101284.81;5039480;28;51389;-59
2022/08/31 00:37:11;;;;;;;;;7.25;6.00;;;;;26.45;100.00;101279.44;5040276;28;51215;-60
2022/08/31 00:39:55;;;;;;;;;9.25;7.00;;;;;26.44;100.00;101274.97;5040895;28;51147;-61
2022/08/31 00:42:39;;;;;;;;;9.50;5.75;;;;;26.47;100.00;101268.44;5040236;28;51159;-60
2022/08/31 00:45:25;;;;;;;;;13.50;5.00;;;;;26.39;100.00;101263.47;5040236;28;51144;-60
2022/08/31 00:48:09;;;;;;;;;10.50;6.25;;;;;26.44;100.00;101264.06;5040475;28;51461;-60
2022/08/31 00:50:55;;;;;;;;;13.50;6.00;;;;;26.41;100.00;101267.84;5039544;28;51183;-61
2022/08/31 00:53:39;;;;;;;;;11.00;6.00;;;;;26.42;100.00;101274.19;5038886;28;51162;-59
2022/08/31 00:56:25;;;;;;;;;9.50;5.75;;;;;26.40;100.00;101265.25;5038097;28;51276;-60
2022/08/31 00:59:14;;;;;;;;;8.00;6.00;;;;;26.37;100.00;101260.81;5035941;28;51336;-61
2022/08/31 01:01:59;;;;;;;;;9.25;7.00;;;;;26.35;100.00;101262.75;5040269;28;51124;-60
2022/08/31 01:04:44;;;;;;;;;7.75;5.50;;;;;26.37;100.00;101257.22;5037691;28;50986;-60
2022/08/31 01:07:28;;;;;;;;;10.25;6.00;;;;;26.36;100.00;101258.19;5039615;28;51517;-59
2022/08/31 01:10:15;;;;;;;;;8.50;6.25;;;;;26.36;100.00;101256.34;5035541;28;51066;-60
2022/08/31 01:13:00;;;;;;;;;12.75;4.25;;;;;26.32;100.00;101249.34;5040084;28;51385;-59
2022/08/31 01:15:50;;;;;;;;;11.50;7.00;;;;;26.33;100.00;101245.63;5038758;28;51082;-60
2022/08/31 01:18:35;;;;;;;;;5.50;3.00;;;;;26.34;100.00;101250.13;5040060;28;51131;-60
2022/08/31 01:21:25;;;;;;;;;8.75;6.25;;;;;26.39;100.00;101244.38;5039596;28;51465;-61
2022/08/31 01:24:11;;;;;;;;;7.25;4.50;;;;;26.39;100.00;101238.94;5034635;28;51083;-60
2022/08/31 01:27:02;;;;;;;;;11.00;5.75;;;;;26.39;100.00;101247.09;5038533;28;51105;-60
2022/08/31 01:29:46;;;;;;;;;13.75;7.00;;;;;26.39;100.00;101241.66;5038510;28;51109;-60
2022/08/31 01:32:31;;;;;;;;;6.75;5.50;;;;;26.40;100.00;101230.63;5039567;28;51267;-60
2022/08/31 01:35:15;;;;;;;;;18.75;8.25;;;;;26.47;100.00;101238.41;5038702;28;51139;-61
2022/08/31 01:38:01;;;;;;;;;9.00;7.50;;;;;26.47;100.00;101232.97;5039574;28;51399;-61
2022/08/31 01:40:52;;;;;;;;;7.00;6.75;;;;;26.40;100.00;101221.59;5039295;28;51111;-60
2022/08/31 01:43:36;;;;;;;;;6.75;5.00;;;;;26.44;100.00;101214.94;5039657;28;51192;-60
2022/08/31 01:46:21;;;;;;;;;11.00;6.25;;;;;26.40;100.00;101203.34;5039261;28;51049;-61
2022/08/31 01:49:05;;;;;;;;;5.25;1.25;;;;;26.48;100.00;101218.34;5039468;28;51080;-60
2022/08/31 01:51:51;;;;;;;;;10.00;5.00;;;;;26.42;100.00;101204.13;5039118;28;51127;-60
2022/08/31 01:54:36;;;;;;;;;13.75;5.25;;;;;26.48;100.00;101219.25;5039589;28;51152;-61
2022/08/31 01:57:21;;;;;;;;;8.50;5.50;;;;;26.47;100.00;101212.03;5039279;28;51495;-60
2022/08/31 02:00:07;;;;;;;;;8.25;5.00;;;;;26.47;100.00;101208.41;5039154;28;51147;-60
2022/08/31 02:02:52;;;;;;;;;8.50;5.25;;;;;26.42;100.00;101212.31;5039144;28;51483;-61
2022/08/31 02:05:37;;;;;;;;;10.75;8.25;;;;;26.42;100.00;101211.41;5039052;28;51057;-59
2022/08/31 02:08:22;;;;;;;;;7.50;5.50;;;;;26.42;100.00;101208.69;5039518;28;51144;-60
2022/08/31 02:11:07;;;;;;;;;12.25;5.00;;;;;26.37;100.00;101198.06;5038894;28;51360;-59
2022/08/31 02:13:51;;;;;;;;;10.50;5.25;;;;;26.40;100.00;101197.03;5038905;28;51536;-62
2022/08/31 02:16:36;;;;;;;;;7.00;6.00;;;;;26.44;100.00;101206.75;5039155;28;51163;-60
2022/08/31 02:19:20;;;;;;;;;7.75;7.00;;;;;26.47;100.00;101203.84;5039436;28;51057;-60
2022/08/31 02:22:05;;;;;;;;;7.75;6.25;;;;;26.41;100.00;101196.91;5039032;28;51022;-60
2022/08/31 02:24:49;;;;;;;;;5.00;5.00;;;;;26.38;100.00;101201.69;5038908;28;51148;-60
2022/08/31 02:27:35;;;;;;;;;9.75;5.25;;;;;26.41;100.00;101205.09;5034913;28;51356;-60
2022/08/31 02:30:20;;;;;;;;;8.00;5.25;;;;;26.40;100.00;101206.06;5037854;28;51172;-59
2022/08/31 02:33:04;;;;;;;;;11.50;5.75;;;;;26.39;100.00;101209.78;5039085;28;51090;-59
2022/08/31 02:35:49;;;;;;;;;7.00;4.00;;;;;26.40;100.00;101208.81;5038933;28;51219;-60
2022/08/31 02:38:36;;;;;;;;;10.00;6.50;;;;;26.38;100.00;101207.16;5039002;28;51084;-60
2022/08/31 02:41:21;;;;;;;;;11.25;6.75;;;;;26.36;100.00;101209.97;5038880;28;51270;-60
2022/08/31 02:44:05;;;;;;;;;9.00;5.00;;;;;26.38;100.00;101213.47;5039081;28;51205;-60
2022/08/31 02:46:50;;;;;;;;;5.50;2.50;;;;;26.38;100.00;101207.16;5041548;28;51433;-60
2022/08/31 02:49:34;;;;;;;;;9.75;6.75;;;;;26.39;100.00;101217.09;5036240;28;51159;-60
2022/08/31 02:52:18;;;;;;;;;10.75;7.00;;;;;26.39;100.00;101220.69;5042657;28;51833;-60
2022/08/31 02:55:03;;;;;;;;;2.50;1.75;;;;;26.40;100.00;101213.41;5042122;28;51147;-61
2022/08/31 02:57:49;;;;;;;;;7.25;2.00;;;;;26.39;100.00;101209.78;5042864;28;51033;-60
2022/08/31 03:00:34;;;;;;;;;4.25;4.25;;;;;26.39;100.00;101220.69;5042319;28;51279;-60
2022/08/31 03:03:20;;;;;;;;;9.00;5.75;;;;;26.34;100.00;101211.94;5042274;28;51405;-60
2022/08/31 03:06:05;;;;;;;;;12.75;5.00;;;;;26.39;100.00;101217.97;5042158;28;51238;-60
2022/08/31 03:08:50;;;;;;;;;6.50;4.00;;;;;26.37;100.00;101205.41;5042570;28;51138;-61
2022/08/31 03:11:34;;;;;;;;;10.50;7.75;;;;;26.31;100.00;101198.47;5042047;28;51625;-60
2022/08/31 03:14:18;;;;;;;;;8.25;5.25;;;;;26.40;100.00;101211.53;5041989;28;51151;-60
2022/08/31 03:17:03;;;;;;;;;6.25;3.25;;;;;26.40;100.00;101205.22;5042103;28;51339;-60
2022/08/31 03:19:47;;;;;;;;;9.75;7.25;;;;;26.38;100.00;101210.75;5041944;28;51092;-60
2022/08/31 03:22:33;;;;;;;;;7.25;6.75;;;;;26.40;100.00;101208.81;5042002;28;51057;-60
2022/08/31 03:25:17;;;;;;;;;6.75;4.00;;;;;26.38;100.00;101205.28;5041944;28;51057;-60
2022/08/31 03:28:02;;;;;;;;;9.00;5.50;;;;;26.34;100.00;101203.75;5041065;28;51200;-59
2022/08/31 03:30:46;;;;;;;;;6.50;6.00;;;;;26.35;100.00;101205.47;5041726;28;51092;-60
2022/08/31 03:33:30;;;;;;;;;9.75;7.00;;;;;26.34;100.00;101206.47;5040146;28;51214;-60
2022/08/31 03:36:16;;;;;;;;;9.75;7.00;;;;;26.33;100.00;101202.00;5041422;28;51084;-60
2022/08/31 03:39:00;;;;;;;;;10.50;6.00;;;;;26.33;100.00;101196.53;5041738;28;51150;-60
2022/08/31 03:41:45;;;;;;;;;7.00;5.00;;;;;26.32;100.00;101205.69;5041633;28;51341;-60
2022/08/31 03:44:30;;;;;;;;;7.00;7.00;;;;;26.32;100.00;101211.16;5041535;28;51055;-59
2022/08/31 03:47:15;;;;;;;;;11.00;8.25;;;;;26.32;100.00;101212.97;5041218;28;51111;-60
2022/08/31 03:49:59;;;;;;;;;14.50;10.50;;;;;26.33;100.00;101220.19;5041583;28;51108;-60
2022/08/31 03:52:44;;;;;;;;;11.00;6.00;;;;;26.33;100.00;101214.75;5041548;28;51207;-60
2022/08/31 03:55:29;;;;;;;;;9.50;8.25;;;;;26.30;100.00;101213.09;5041101;28;51219;-60
2022/08/31 03:58:14;;;;;;;;;12.25;10.50;;;;;26.33;100.00;101229.28;5040884;28;51182;-60
2022/08/31 04:00:59;;;;;;;;;12.00;11.25;;;;;26.30;100.00;101227.59;5041268;28;51399;-60
2022/08/31 04:03:43;;;;;;;;;11.75;9.50;;;;;26.27;100.00;101221.44;5041195;28;51168;-60
2022/08/31 04:06:28;;;;;;;;;12.50;5.00;;;;;26.28;100.00;101237.75;5041226;28;51492;-60
2022/08/31 04:09:12;;;;;;;;;11.00;8.25;;;;;26.27;100.00;101238.72;5038789;28;51234;-60
2022/08/31 04:11:57;;;;;;;;;8.75;8.25;;;;;26.28;100.00;101242.31;5040801;28;51086;-59
2022/08/31 04:14:41;;;;;;;;;7.75;5.75;;;;;26.25;100.00;101240.66;5041000;28;51761;-60
2022/08/31 04:17:26;;;;;;;;;9.00;8.00;;;;;26.20;100.00;101247.38;5040827;28;51171;-60
2022/08/31 04:20:12;;;;;;;;;11.25;10.25;;;;;26.25;100.00;101243.38;5040846;28;51085;-60
2022/08/31 04:22:57;;;;;;;;;11.75;7.75;;;;;26.26;100.00;101239.69;5040946;28;51107;-60
2022/08/31 04:25:41;;;;;;;;;5.25;4.50;;;;;26.27;100.00;101248.72;5040730;28;51521;-60
2022/08/31 04:28:26;;;;;;;;;11.75;5.50;;;;;26.23;100.00;101248.06;5040629;28;51141;-60
2022/08/31 04:31:10;;;;;;;;;9.00;6.00;;;;;26.23;100.00;101248.06;5040798;28;51146;-59
2022/08/31 04:33:56;;;;;;;;;3.00;3.00;;;;;26.23;100.00;101249.91;5040742;28;51171;-60
2022/08/31 04:36:44;;;;;;;;;9.25;6.50;;;;;26.23;100.00;101242.59;5040674;28;51168;-60
2022/08/31 04:39:28;;;;;;;;;6.50;5.50;;;;;26.20;100.00;101240.03;5039278;28;51171;-61
2022/08/31 04:42:13;;;;;;;;;7.00;5.00;;;;;26.26;100.00;101246.97;5040767;28;51188;-61
2022/08/31 04:44:57;;;;;;;;;13.00;4.75;;;;;26.24;100.00;101246.22;5040352;28;51107;-60
2022/08/31 04:47:42;;;;;;;;;7.50;5.75;;;;;26.21;100.00;101247.25;5040320;28;51222;-59
2022/08/31 04:50:26;;;;;;;;;6.75;3.50;;;;;26.18;100.00;101260.22;5040330;28;51169;-61
2022/08/31 04:53:11;;;;;;;;;6.00;3.25;;;;;26.17;100.00;101262.06;5040195;28;51238;-60
2022/08/31 04:55:55;;;;;;;;;9.00;5.00;;;;;26.13;100.00;101257.78;5040204;28;51089;-60
2022/08/31 04:59:04;;;;;;;;;9.25;5.75;;;;;26.11;100.00;101268.78;5040185;28;51202;-60
2022/08/31 05:01:48;;;;;;;;;9.75;5.75;;;;;26.11;100.00;101271.50;5036891;28;51538;-60
2022/08/31 05:04:33;;;;;;;;;10.25;7.25;;;;;26.14;100.00;101275.88;5040035;28;51122;-60
2022/08/31 05:07:17;;;;;;;;;6.25;6.00;;;;;26.14;100.00;101279.47;5039960;28;51392;-60
2022/08/31 05:10:03;;;;;;;;;14.00;7.00;;;;;26.17;100.00;101285.72;5039279;28;51202;-61
2022/08/31 05:12:50;;;;;;;;;10.25;6.25;;;;;26.16;100.00;101289.41;5038954;28;51228;-59
2022/08/31 05:15:42;;;;;;;;;13.75;8.50;;;;;26.17;100.00;101292.06;5039753;28;51329;-59
2022/08/31 05:18:27;;;;;;;;;10.00;4.25;;;;;26.19;100.00;101302.88;5039838;28;51203;-60
2022/08/31 05:21:14;;;;;;;;;12.75;10.25;;;;;26.23;100.00;101312.66;5040062;28;51637;-59
2022/08/31 05:24:00;;;;;;;;;11.75;4.00;;;;;26.24;100.00;101319.88;5035691;28;51032;-60
2022/08/31 05:26:48;;;;;;;;;12.75;8.25;;;;;26.24;100.00;101325.31;5039695;28;51179;-60
2022/08/31 05:29:32;;;;;;;;;14.00;9.25;;;;;26.30;100.00;101338.56;5039332;28;51216;-60
2022/08/31 05:32:16;;;;;;;;;11.25;7.25;;;;;26.28;100.00;101329.59;5039725;28;51374;-60
2022/08/31 05:35:01;;;;;;;;;10.00;8.50;;;;;26.31;100.00;101332.16;5039249;28;51055;-59
2022/08/31 05:37:47;;;;;;;;;12.25;7.00;;;;;26.20;100.00;101319.16;5039761;28;51029;-60
2022/08/31 05:40:31;;;;;;;;;11.50;7.00;;;;;26.33;100.00;101357.50;5038021;28;51118;-61
2022/08/31 05:43:15;;;;;;;;;13.25;7.00;;;;;26.30;100.00;101354.94;5039587;28;51438;-59
2022/08/31 05:46:00;;;;;;;;;10.50;5.25;;;;;26.20;100.00;101356.47;5039553;28;51308;-60
2022/08/31 05:48:44;;;;;;;;;12.25;7.75;;;;;26.14;100.00;101355.84;5039463;28;51094;-60
2022/08/31 05:51:30;;;;;;;;;13.25;8.25;;;;;26.07;100.00;101356.28;5038993;28;51194;-59
2022/08/31 05:54:16;;;;;;;;;10.50;7.00;;;;;26.05;100.00;101352.78;5039546;28;51180;-59
2022/08/31 05:57:01;;;;;;;;;14.50;9.50;;;;;26.05;100.00;101356.38;5033631;28;51450;-58
2022/08/31 05:59:46;;;;;;;;;15.00;10.75;;;;;26.07;100.00;101356.28;5038044;28;51092;-60
2022/08/31 06:02:30;;;;;;;;;13.50;11.25;;;;;26.07;100.00;101368.06;5039317;28;51089;-59
2022/08/31 06:05:15;;;;;;;;;11.75;9.75;;;;;26.09;100.00;101370.69;5039080;28;51145;-59
2022/08/31 06:07:59;;;;;;;;;16.25;8.75;;;;;26.13;100.00;101377.75;5039368;28;51118;-58
2022/08/31 06:10:45;;;;;;;;;11.50;8.50;;;;;26.13;100.00;101383.22;5038858;28;51136;-58
2022/08/31 06:13:29;;;;;;;;;11.75;10.00;;;;;26.20;100.00;101386.47;5038817;28;51085;-59
2022/08/31 06:16:16;;;;;;;;;16.00;8.25;;;;;26.19;100.00;101381.97;5038903;28;51659;-59
2022/08/31 06:19:05;;;;;;;;;12.50;9.25;;;;;26.24;100.00;101393.50;5038807;28;51128;-59
2022/08/31 06:21:50;;;;;;;;;10.00;9.50;;;;;26.18;100.00;101378.38;5042075;28;51284;-58
2022/08/31 06:24:35;;;;;;;;;14.75;5.25;;;;;26.30;100.00;101398.59;5042938;28;51174;-59
2022/08/31 06:27:20;;;;;;;;;9.00;8.75;;;;;26.33;100.00;101400.25;5037550;28;51149;-58
2022/08/31 06:30:06;;;;;;;;;8.50;7.25;;;;;26.34;100.00;101400.19;5042430;28;51479;-59
2022/08/31 06:32:51;;;;;;;;;10.00;6.50;;;;;26.38;100.00;101409.91;5042716;28;51337;-59
2022/08/31 06:35:39;;;;;;;;;13.25;6.00;;;;;26.38;100.00;101418.09;5043047;28;51209;-59
2022/08/31 06:38:23;;;;;;;;;11.50;8.00;;;;;26.39;100.00;101421.72;5042835;28;51178;-59
2022/08/31 06:41:27;;;;;;;;;13.75;7.50;;;;;26.42;100.00;101421.50;5042657;28;51542;-59
2022/08/31 06:44:12;;;;;;;;;9.25;7.25;;;;;26.45;100.00;101426.78;5041617;28;51192;-59
2022/08/31 06:46:57;;;;;;;;;7.25;6.25;;;;;26.41;100.00;101426.09;5042812;28;51341;-60
2022/08/31 06:49:41;;;;;;;;;8.50;6.25;;;;;26.49;100.00;101431.13;5042430;28;51195;-59
2022/08/31 06:52:26;;;;;;;;;9.50;7.25;;;;;26.48;100.00;101425.72;5042702;28;51033;-59
2022/08/31 06:55:11;;;;;;;;;12.50;7.50;;;;;26.51;100.00;101436.47;5042397;28;51162;-59
2022/08/31 06:57:55;;;;;;;;;11.75;8.25;;;;;26.51;100.00;101433.75;5042460;28;51233;-60
2022/08/31 07:00:40;;;;;;;;;8.00;6.75;;;;;26.55;100.00;101433.47;5042322;28;51484;-59
2022/08/31 07:03:32;;;;;;;;;10.75;5.75;;;;;26.59;100.00;101445.06;5042366;28;51160;-58
2022/08/31 07:06:23;;;;;;;;;8.00;7.00;;;;;26.60;100.00;101447.72;5042143;28;51160;-58
2022/08/31 07:09:10;;;;;;;;;6.75;5.25;;;;;26.66;100.00;101451.03;5038302;28;51159;-59
2022/08/31 07:11:55;;;;;;;;;11.50;5.00;;;;;26.64;100.00;101442.94;5036826;28;51067;-59
2022/08/31 07:14:40;;;;;;;;;12.75;6.00;;;;;26.67;100.00;101453.66;5041676;28;51150;-60
2022/08/31 07:17:24;;;;;;;;;8.50;7.25;;;;;26.69;100.00;101459.06;5042423;28;50991;-59
2022/08/31 07:20:09;;;;;;;;;6.75;4.50;;;;;26.68;100.00;101460.88;5041965;28;51129;-59
2022/08/31 07:22:55;;;;;;;;;7.00;6.00;;;;;26.68;100.00;101469.06;5041090;28;51194;-59
2022/08/31 07:25:40;;;;;;;;;10.75;5.25;;;;;26.70;100.00;101466.28;5041631;28;51232;-59
2022/08/31 07:28:25;;;;;;;;;9.00;6.00;;;;;26.78;100.00;101474.00;5041973;28;51080;-60
2022/08/31 07:31:12;;;;;;;;;9.25;5.50;;;;;26.84;100.00;101477.25;5037305;28;51452;-60
2022/08/31 07:33:56;;;;;;;;;8.25;6.25;;;;;26.93;100.00;101475.81;5041282;28;51394;-58
2022/08/31 07:42:49;;;;;;;;;14.75;8.50;;;;;27.00;100.00;101465.41;5041383;28;51170;-60
2022/08/31 07:45:33;;;;;;;;;6.50;4.75;;;;;27.21;100.00;101479.56;5041376;28;51340;-58
2022/08/31 07:48:18;;;;;;;;;9.75;5.00;;;;;27.37;100.00;101491.31;5041473;28;51100;-60
2022/08/31 07:51:02;;;;;;;;;8.75;6.00;;;;;27.93;100.00;101490.53;5041198;28;51124;-60
2022/08/31 07:53:46;;;;;;;;;11.50;6.75;;;;;28.39;100.00;101483.00;5040414;28;51160;-60
2022/08/31 07:56:32;;;;;;;;;6.75;4.00;;;;;28.63;100.00;101479.56;5041093;28;51415;-60
2022/08/31 07:59:19;;;;;;;;;5.75;4.50;;;;;28.82;100.00;101480.09;5041228;28;51172;-59
2022/08/31 08:02:04;;;;;;;;;14.50;10.50;;;;;28.90;100.00;101488.63;5041025;28;51413;-60
2022/08/31 08:04:49;;;;;;;;;13.00;11.50;;;;;28.79;100.00;101490.38;5040704;28;51172;-59
2022/08/31 08:07:36;;;;;;;;;10.00;7.00;;;;;28.74;100.00;101487.97;5041377;28;51171;-60
2022/08/31 08:10:22;;;;;;;;;13.00;5.75;;;;;28.71;100.00;101496.34;5036040;28;51215;-60
2022/08/31 08:13:07;;;;;;;;;7.00;7.00;;;;;28.85;100.00;101485.34;5040834;28;51226;-59
2022/08/31 08:15:52;;;;;;;;;8.75;6.00;;;;;29.39;100.00;101494.44;5040854;28;51116;-59
2022/08/31 08:18:37;;;;;;;;;14.25;9.25;;;;;29.53;100.00;101491.53;5036815;28;51220;-60
2022/08/31 08:21:21;;;;;;;;;2.50;1.25;;;;;29.52;100.00;101488.94;5040340;28;51187;-59
2022/08/31 08:24:06;;;;;;;;;9.25;6.00;;;;;29.69;100.00;101485.81;5040497;28;51049;-60
2022/08/31 08:26:51;;;;;;;;;10.50;6.00;;;;;30.03;100.00;101481.59;5034096;28;51405;-61
2022/08/31 08:29:36;;;;;;;;;10.50;6.50;;;;;30.36;100.00;101477.31;5032684;28;51152;-61
2022/08/31 08:32:22;;;;;;;;;10.25;7.75;;;;;30.54;100.00;101470.44;5040136;28;51067;-61
2022/08/31 08:35:11;;;;;;;;;11.00;6.00;;;;;30.68;100.00;101476.75;5039919;28;51227;-61
2022/08/31 08:37:56;;;;;;;;;11.75;8.00;;;;;30.80;100.00;101486.78;5040178;28;51156;-60
2022/08/31 08:40:42;;;;;;;;;7.25;5.25;;;;;31.05;100.00;101487.59;5039835;28;51131;-59
2022/08/31 08:43:35;;;;;;;;;13.00;6.75;;;;;31.09;100.00;101479.97;5038657;28;51106;-60
2022/08/31 08:46:27;;;;;;;;;4.25;3.50;;;;;31.12;100.00;101479.75;5040066;28;51464;-61
2022/08/31 08:49:34;;;;;;;;;8.50;7.25;;;;;31.06;100.00;101470.97;5039584;28;51190;-60
2022/08/31 08:52:26;;;;;;;;;4.75;3.50;;;;;31.26;100.00;101468.53;5039104;28;51191;-59
2022/08/31 08:55:32;;;;;;;;;5.00;3.00;;;;;31.41;100.00;101471.91;5040171;28;51206;-61
2022/08/31 08:58:18;;;;;;;;;11.00;8.00;;;;;31.37;100.00;101456.69;5035201;28;51049;-61
2022/08/31 09:01:03;;;;;;;;;9.00;5.50;;;;;31.47;100.00;101462.31;5039914;28;51457;-61
2022/08/31 09:04:23;;;;;;;;;10.25;9.25;;;;;31.60;100.00;101467.66;5039817;28;51162;-59
2022/08/31 09:07:43;;;;;;;;;6.50;6.00;;;;;31.74;100.00;101453.69;5017667;28;51170;-60
2022/08/31 09:10:33;;;;;;;;;7.00;5.25;;;;;31.95;100.00;101450.16;5039148;28;51138;-61
2022/08/31 09:13:38;;;;;;;;;1.25;1.25;;;;;31.99;100.00;101452.53;5024520;28;51323;-60
2022/08/31 09:16:39;;;;;;;;;10.50;6.00;;;;;32.01;100.00;101463.44;5034078;28;51486;-60
2022/08/31 09:19:24;;;;;;;;;7.00;5.00;;;;;32.12;100.00;101462.50;5038191;28;51463;-59
2022/08/31 09:22:08;;;;;;;;;3.75;2.25;;;;;32.21;100.00;101450.72;5038814;28;51140;-62
2022/08/31 09:24:58;;;;;;;;;9.50;8.50;;;;;32.32;100.00;101457.22;5039570;28;51120;-60
2022/08/31 09:27:56;;;;;;;;;4.50;4.00;;;;;32.30;100.00;101449.97;5038952;28;51154;-62
2022/08/31 09:30:43;;;;;;;;;4.75;3.75;;;;;31.99;100.00;101459.91;5037430;28;51220;-60
2022/08/31 09:33:31;;;;;;;;;10.00;6.00;;;;;31.74;100.00;101463.84;5038052;28;51191;-59
2022/08/31 09:36:21;;;;;;;;;12.25;11.00;;;;;31.64;100.00;101474.69;5037081;28;51243;-58
2022/08/31 09:39:30;;;;;;;;;7.00;6.00;;;;;31.67;100.00;101475.28;5038433;28;51127;-60
2022/08/31 09:42:32;;;;;;;;;8.75;3.50;;;;;31.56;100.00;101469.78;5038707;28;51425;-58
2022/08/31 09:45:27;;;;;;;;;8.00;6.00;;;;;31.37;100.00;101479.56;5039876;28;51299;-48
2022/08/31 09:48:11;;;;;;;;;7.75;5.00;;;;;31.34;100.00;101474.28;5039575;28;51239;-51
2022/08/31 09:51:00;;;;;;;;;6.50;4.25;;;;;31.35;100.00;101480.69;5037255;28;51042;-49
2022/08/31 09:56:57;;;;;;;;;9.50;8.00;;;;;31.36;100.00;101483.28;5038979;28;51050;-50
2022/08/31 09:59:48;;;;;;;;;9.00;6.00;;;;;31.47;100.00;101476.06;5039539;28;51106;-49
2022/08/31 10:02:36;;;;;;;;;14.00;12.75;;;;;31.75;100.00;101487.59;5039912;28;51136;-50
2022/08/31 10:05:39;;;;;;;;;17.75;12.75;;;;;31.88;100.00;101485.56;5038384;28;51526;-50
2022/08/31 10:08:37;;;;;;;;;14.75;10.50;;;;;31.88;100.00;101481.94;5039759;28;51298;-48
2022/08/31 10:11:23;;;;;;;;;15.00;12.25;;;;;31.93;100.00;101479.69;5039230;28;51354;-49
2022/08/31 10:14:26;;;;;;;;;14.75;12.25;;;;;32.01;100.00;101484.56;5037980;28;51119;-48
2022/08/31 10:17:17;;;;;;;;;16.00;10.50;;;;;31.97;100.00;101473.78;5038515;28;51177;-48
2022/08/31 10:20:08;;;;;;;;;15.75;13.50;;;;;32.04;100.00;101467.78;5039557;28;51501;-47
2022/08/31 10:22:57;;;;;;;;;7.00;6.25;;;;;32.06;100.00;101458.38;5039459;28;51204;-48
2022/08/31 10:25:51;;;;;;;;;10.25;8.50;;;;;32.15;100.00;101465.88;5036003;28;51161;-50
2022/08/31 10:28:58;;;;;;;;;7.50;6.25;;;;;32.29;100.00;101463.88;5039104;28;51150;-50
2022/08/31 10:31:48;;;;;;;;;6.00;5.75;;;;;32.33;100.00;101456.22;5038446;28;51535;-48
2022/08/31 10:37:57;;;;;;;;;10.50;9.50;;;;;32.21;100.00;101445.22;5039477;28;51285;-48
2022/08/31 10:41:11;;;;;;;;;11.75;9.75;;;;;32.41;100.00;101467.44;5039312;28;51211;-50
2022/08/31 10:44:22;;;;;;;;;14.00;8.75;;;;;32.56;100.00;101466.13;5037268;28;51133;-48
2022/08/31 10:47:07;;;;;;;;;12.50;7.00;;;;;32.66;100.00;101470.84;5036220;28;51077;-50
2022/08/31 10:49:54;;;;;;;;;8.00;5.75;;;;;32.66;100.00;101476.38;5039373;28;51084;-50
2022/08/31 10:52:52;;;;;;;;;7.75;6.75;;;;;32.50;100.00;101463.91;5023972;28;51068;-48
2022/08/31 10:55:57;;;;;;;;;11.00;7.75;;;;;32.37;100.00;101460.47;5039752;28;51120;-49
2022/08/31 10:59:00;;;;;;;;;9.00;6.50;;;;;32.23;100.00;101453.31;5036097;28;51435;-50
2022/08/31 11:02:06;;;;;;;;;9.00;5.25;;;;;32.09;100.00;101462.75;5036645;28;51086;-49
2022/08/31 11:05:09;;;;;;;;;8.75;6.00;;;;;32.00;100.00;101458.91;5037809;28;51549;-48
2022/08/31 11:08:11;;;;;;;;;17.00;16.50;;;;;31.98;100.00;101467.28;5041913;28;51127;-49
2022/08/31 11:10:58;;;;;;;;;7.75;7.25;;;;;32.06;100.00;101460.28;5043019;28;51154;-48
2022/08/31 11:14:00;;;;;;;;;11.00;9.75;;;;;32.15;100.00;101459.50;5042714;28;51539;-48
2022/08/31 11:17:17;;;;;;;;;7.50;7.50;;;;;32.38;100.00;101448.44;5042613;28;51399;-51
2022/08/31 11:20:13;;;;;;;;;28.00;24.50;;;;;32.47;100.00;101449.53;5041641;28;51263;-51
2022/08/31 11:23:04;;;;;;;;;10.00;7.25;;;;;32.49;100.00;101453.88;5041472;28;51207;-49
2022/08/31 11:26:26;;;;;;;;;9.75;7.25;;;;;32.60;100.00;101441.94;5042039;28;51383;-52
2022/08/31 11:29:17;;;;;;;;;9.00;6.75;;;;;32.68;100.00;101449.56;5042439;28;51132;-50
2022/08/31 11:32:11;;;;;;;;;8.75;5.75;;;;;32.76;100.00;101441.50;5042463;28;51243;-51
2022/08/31 11:34:58;;;;;;;;;10.75;7.50;;;;;32.74;100.00;101444.38;5040187;28;51276;-49
2022/08/31 11:37:53;;;;;;;;;14.25;11.25;;;;;32.72;100.00;101437.25;5042581;28;51215;-49
2022/08/31 11:40:40;;;;;;;;;10.75;7.00;;;;;32.65;100.00;101430.53;5041863;28;51140;-52
2022/08/31 11:43:30;;;;;;;;;7.50;6.50;;;;;32.56;100.00;101422.06;5041896;28;51450;-51
2022/08/31 11:46:38;;;;;;;;;7.50;7.50;;;;;32.51;100.00;101423.47;5041676;28;51134;-48
2022/08/31 11:49:43;;;;;;;;;14.00;11.00;;;;;32.54;100.00;101418.56;5039791;28;51025;-50
2022/08/31 11:52:47;;;;;;;;;8.50;7.00;;;;;32.37;100.00;101406.25;5041630;28;51171;-49
2022/08/31 11:55:50;;;;;;;;;13.00;8.50;;;;;31.99;100.00;101407.63;5040756;28;51157;-50
2022/08/31 11:58:38;;;;;;;;;9.25;6.75;;;;;31.43;100.00;101414.06;5041790;28;51325;-49
2022/08/31 12:01:33;;;;;;;;;11.00;8.00;;;;;30.84;100.00;101422.38;5041517;28;51162;-51
2022/08/31 12:04:54;;;;;;;;;12.75;9.00;;;;;30.43;100.00;101419.06;5041972;28;51103;-48
2022/08/31 12:07:42;;;;;;;;;11.25;7.00;;;;;30.35;100.00;101421.53;5026545;28;51102;-50
2022/08/31 12:10:53;;;;;;;;;9.00;7.00;;;;;30.41;100.00;101420.19;5040573;28;51205;-50
2022/08/31 12:13:47;;;;;;;;;11.75;9.00;;;;;30.60;100.00;101411.41;5039881;28;51159;-48
2022/08/31 12:16:41;;;;;;;;;11.00;8.50;;;;;30.90;100.00;101410.88;5039358;28;51206;-48
2022/08/31 12:26:15;;;;;;;;;12.75;9.00;;;;;31.59;100.00;101394.44;5038950;28;51442;-49
2022/08/31 12:29:16;;;;;;;;;8.50;7.00;;;;;31.59;100.00;101388.94;5041025;28;51182;-49
2022/08/31 12:32:19;;;;;;;;;8.00;6.50;;;;;31.47;100.00;101386.19;5039761;28;51090;-49
2022/08/31 12:35:25;;;;;;;;;12.50;7.25;;;;;31.24;100.00;101384.44;5040577;28;51435;-48
2022/08/31 12:38:18;;;;;;;;;15.00;9.50;;;;;31.20;100.00;101378.34;5041219;28;51349;-47
2022/08/31 12:41:04;;;;;;;;;41.50;32.75;;;;;31.28;100.00;101375.81;5039704;28;51087;-48
2022/08/31 12:43:48;;;;;;;;;13.25;12.25;;;;;31.31;100.00;101375.59;5038375;28;51136;-49
2022/08/31 12:46:56;;;;;;;;;8.75;8.00;;;;;31.42;100.00;101374.69;5037060;28;51533;-50
2022/08/31 12:49:47;;;;;;;;;7.25;7.25;;;;;31.38;100.00;101368.56;5036501;28;51129;-48
2022/08/31 12:53:04;;;;;;;;;7.00;5.00;;;;;31.40;100.00;101362.06;5040520;28;51279;-51
2022/08/31 12:56:04;;;;;;;;;6.50;6.00;;;;;31.22;100.00;101366.19;5037047;28;51084;-51
2022/08/31 12:59:00;;;;;;;;;8.50;6.75;;;;;31.12;100.00;101356.06;5037045;28;51200;-47
2022/08/31 13:01:46;;;;;;;;;5.75;5.75;;;;;31.04;100.00;101357.53;5039677;28;51145;-51
2022/08/31 13:04:31;;;;;;;;;6.00;4.75;;;;;30.88;100.00;101363.41;5039191;28;51378;-48
2022/08/31 13:07:33;;;;;;;;;6.75;5.50;;;;;30.62;100.00;101370.97;5039982;28;51107;-49
2022/08/31 13:10:28;;;;;;;;;7.00;5.25;;;;;30.51;100.00;101369.06;5039447;28;51180;-48
2022/08/31 13:13:24;;;;;;;;;6.25;5.00;;;;;30.68;100.00;101361.38;5040080;28;51534;-50